createdAt,value
2017-05-07T00:00:58.818Z,0
2017-05-07T00:01:59.592Z,0
2017-05-07T00:03:00.614Z,0
2017-05-07T00:04:01.389Z,0
2017-05-07T00:05:02.158Z,0
2017-05-07T00:06:02.930Z,0
2017-05-07T00:07:03.702Z,0
2017-05-07T00:08:04.729Z,0
2017-05-07T00:09:05.497Z,0
2017-05-07T00:10:06.271Z,0
2017-05-07T00:11:07.043Z,0
2017-05-07T00:12:07.818Z,0
2017-05-07T00:13:08.838Z,0
2017-05-07T00:14:09.615Z,0
2017-05-07T00:15:10.385Z,0
2017-05-07T00:16:11.157Z,0
2017-05-07T00:17:11.929Z,0
2017-05-07T00:18:12.953Z,0
2017-05-07T00:19:13.726Z,0
2017-05-07T00:20:14.498Z,0
2017-05-07T00:21:15.270Z,0
2017-05-07T00:22:16.045Z,0
2017-05-07T00:23:17.068Z,0
2017-05-07T00:24:17.840Z,0
2017-05-07T00:25:18.614Z,0
2017-05-07T00:26:19.389Z,0
2017-05-07T00:27:20.162Z,0
2017-05-07T00:28:21.233Z,0
2017-05-07T00:29:22.008Z,0
2017-05-07T00:30:22.778Z,0
2017-05-07T00:31:23.549Z,0
2017-05-07T00:32:24.320Z,0
2017-05-07T00:33:25.340Z,0
2017-05-07T00:34:26.113Z,0
2017-05-07T00:35:26.886Z,0
2017-05-07T00:36:27.660Z,0
2017-05-07T00:37:28.430Z,0
2017-05-07T00:38:29.454Z,0
2017-05-07T00:39:30.227Z,0
2017-05-07T00:40:31.000Z,0
2017-05-07T00:41:31.768Z,0
2017-05-07T00:42:32.542Z,0
2017-05-07T00:43:33.566Z,0
2017-05-07T00:44:34.337Z,0
2017-05-07T00:45:35.110Z,0
2017-05-07T00:46:35.880Z,0
2017-05-07T00:47:36.652Z,0
2017-05-07T00:48:37.674Z,0
2017-05-07T00:49:38.446Z,0
2017-05-07T00:50:39.217Z,0
2017-05-07T00:51:39.990Z,0
2017-05-07T00:52:40.765Z,0
2017-05-07T00:53:41.786Z,0
2017-05-07T00:54:42.557Z,0
2017-05-07T00:55:43.329Z,0
2017-05-07T00:56:44.103Z,0
2017-05-07T00:57:44.874Z,0
2017-05-07T00:58:45.898Z,0
2017-05-07T00:59:46.667Z,0
2017-05-07T01:00:47.441Z,0
2017-05-07T01:01:48.210Z,0
2017-05-07T01:02:48.978Z,0
2017-05-07T01:03:50.000Z,0
2017-05-07T01:04:50.770Z,0
2017-05-07T01:05:51.543Z,0
2017-05-07T01:06:52.315Z,0
2017-05-07T01:07:53.086Z,0
2017-05-07T01:08:54.102Z,0
2017-05-07T01:09:54.872Z,0
2017-05-07T01:10:55.643Z,0
2017-05-07T01:11:56.413Z,0
2017-05-07T01:12:57.187Z,0
2017-05-07T01:13:58.209Z,0
2017-05-07T01:14:58.978Z,0
2017-05-07T01:15:59.751Z,0
2017-05-07T01:17:00.525Z,0
2017-05-07T01:18:01.296Z,0
2017-05-07T01:19:02.318Z,0
2017-05-07T01:20:03.090Z,0
2017-05-07T01:21:03.862Z,0
2017-05-07T01:22:04.635Z,0
2017-05-07T01:23:05.404Z,0
2017-05-07T01:24:06.425Z,0
2017-05-07T01:25:07.195Z,0
2017-05-07T01:26:07.968Z,0
2017-05-07T01:27:08.741Z,0
2017-05-07T01:28:09.512Z,0
2017-05-07T01:29:10.532Z,0
2017-05-07T01:30:11.305Z,0
2017-05-07T01:31:12.077Z,0
2017-05-07T01:32:12.848Z,0
2017-05-07T01:33:13.620Z,0
2017-05-07T01:34:14.640Z,0
2017-05-07T01:35:15.412Z,0
2017-05-07T01:36:16.185Z,0
2017-05-07T01:37:16.959Z,0
2017-05-07T01:38:17.729Z,0
2017-05-07T01:39:18.751Z,0
2017-05-07T01:40:19.521Z,0
2017-05-07T01:41:20.301Z,0
2017-05-07T01:42:21.061Z,0
2017-05-07T01:43:21.830Z,0
2017-05-07T01:44:23.043Z,0
2017-05-07T01:45:23.815Z,0
2017-05-07T01:46:24.586Z,0
2017-05-07T01:47:25.548Z,0
2017-05-07T01:48:26.320Z,0
2017-05-07T01:49:27.342Z,0
2017-05-07T01:50:28.121Z,0
2017-05-07T01:51:28.882Z,0
2017-05-07T01:52:29.652Z,0
2017-05-07T01:53:30.426Z,0
2017-05-07T01:54:31.445Z,0
2017-05-07T01:55:32.218Z,0
2017-05-07T01:56:32.987Z,0
2017-05-07T01:57:33.759Z,0
2017-05-07T01:58:34.531Z,0
2017-05-07T01:59:35.552Z,0
2017-05-07T02:00:36.323Z,0
2017-05-07T02:01:37.096Z,0
2017-05-07T02:02:37.865Z,0
2017-05-07T02:03:38.638Z,0
2017-05-07T02:04:39.660Z,0
2017-05-07T02:05:40.430Z,0
2017-05-07T02:06:41.202Z,0
2017-05-07T02:07:41.971Z,0
2017-05-07T02:08:42.749Z,0
2017-05-07T02:09:43.768Z,0
2017-05-07T02:10:44.538Z,0
2017-05-07T02:11:45.309Z,0
2017-05-07T02:12:46.078Z,0
2017-05-07T02:13:46.848Z,0
2017-05-07T02:14:47.872Z,0
2017-05-07T02:15:48.642Z,0
2017-05-07T02:16:49.414Z,0
2017-05-07T02:17:50.186Z,0
2017-05-07T02:18:50.957Z,0
2017-05-07T02:19:51.980Z,0
2017-05-07T02:20:52.753Z,0
2017-05-07T02:21:53.527Z,0
2017-05-07T02:22:54.491Z,0
2017-05-07T02:23:55.261Z,0
2017-05-07T02:24:56.283Z,0
2017-05-07T02:25:57.056Z,0
2017-05-07T02:26:57.824Z,0
2017-05-07T02:27:58.597Z,0
2017-05-07T02:28:59.368Z,0
2017-05-07T02:30:00.390Z,0
2017-05-07T02:31:01.168Z,0
2017-05-07T02:32:01.933Z,0
2017-05-07T02:33:02.889Z,0
2017-05-07T02:34:03.656Z,0
2017-05-07T02:35:04.679Z,0
2017-05-07T02:36:05.447Z,0
2017-05-07T02:37:06.220Z,0
2017-05-07T02:38:06.990Z,0
2017-05-07T02:39:07.761Z,0
2017-05-07T02:40:08.784Z,0
2017-05-07T02:41:09.553Z,0
2017-05-07T02:42:10.510Z,0
2017-05-07T02:43:11.278Z,0
2017-05-07T02:44:12.051Z,0
2017-05-07T02:45:13.074Z,0
2017-05-07T02:46:13.846Z,0
2017-05-07T02:47:14.615Z,0
2017-05-07T02:48:15.386Z,0
2017-05-07T02:49:16.157Z,0
2017-05-07T02:50:17.177Z,0
2017-05-07T02:51:17.949Z,0
2017-05-07T02:52:18.720Z,0
2017-05-07T02:53:19.490Z,0
2017-05-07T02:54:20.260Z,0
2017-05-07T02:55:21.286Z,0
2017-05-07T02:56:22.057Z,0
2017-05-07T02:57:22.825Z,0
2017-05-07T02:58:23.598Z,0
2017-05-07T02:59:24.367Z,0
2017-05-07T03:00:25.386Z,0
2017-05-07T03:01:26.157Z,0
2017-05-07T03:02:26.927Z,0
2017-05-07T03:03:27.699Z,0
2017-05-07T03:04:28.470Z,0
2017-05-07T03:05:29.490Z,0
2017-05-07T03:06:30.261Z,0
2017-05-07T03:07:31.033Z,0
2017-05-07T03:08:31.803Z,0
2017-05-07T03:09:32.570Z,0
2017-05-07T03:10:33.591Z,0
2017-05-07T03:11:34.362Z,0
2017-05-07T03:12:35.134Z,0
2017-05-07T03:13:35.905Z,0
2017-05-07T03:14:36.679Z,0
2017-05-07T03:15:37.699Z,0
2017-05-07T03:16:38.473Z,0
2017-05-07T03:17:39.239Z,0
2017-05-07T03:18:40.014Z,0
2017-05-07T03:19:40.785Z,0
2017-05-07T03:20:41.806Z,0
2017-05-07T03:21:42.575Z,0
2017-05-07T03:22:43.345Z,0
2017-05-07T03:23:44.115Z,0
2017-05-07T03:24:44.885Z,0
2017-05-07T03:25:45.909Z,0
2017-05-07T03:26:46.679Z,0
2017-05-07T03:27:47.451Z,0
2017-05-07T03:28:48.222Z,0
2017-05-07T03:29:48.992Z,0
2017-05-07T03:30:50.018Z,0
2017-05-07T03:31:50.789Z,0
2017-05-07T03:32:51.558Z,0
2017-05-07T03:33:52.334Z,0
2017-05-07T03:34:53.101Z,0
2017-05-07T03:35:54.123Z,0
2017-05-07T03:36:54.896Z,0
2017-05-07T03:37:55.667Z,0
2017-05-07T03:38:56.437Z,0
2017-05-07T03:39:57.209Z,0
2017-05-07T03:40:58.231Z,0
2017-05-07T03:41:59.001Z,0
2017-05-07T03:42:59.773Z,0
2017-05-07T03:44:00.554Z,0
2017-05-07T03:45:01.316Z,0
2017-05-07T03:46:02.337Z,5
2017-05-07T03:47:03.111Z,5
2017-05-07T03:48:03.885Z,5
2017-05-07T03:49:04.660Z,5
2017-05-07T03:50:05.435Z,5
2017-05-07T03:51:06.457Z,5
2017-05-07T03:52:07.227Z,5
2017-05-07T03:53:07.997Z,5
2017-05-07T03:54:08.771Z,10
2017-05-07T03:55:09.543Z,10
2017-05-07T03:56:10.568Z,10
2017-05-07T03:57:11.345Z,10
2017-05-07T03:58:12.120Z,10
2017-05-07T03:59:12.894Z,10
2017-05-07T04:00:13.665Z,15
2017-05-07T04:01:14.690Z,15
2017-05-07T04:02:15.466Z,15
2017-05-07T04:03:16.235Z,15
2017-05-07T04:04:17.008Z,15
2017-05-07T04:05:17.782Z,15
2017-05-07T04:06:18.806Z,15
2017-05-07T04:07:19.579Z,20
2017-05-07T04:08:20.354Z,20
2017-05-07T04:09:21.131Z,20
2017-05-07T04:10:21.904Z,20
2017-05-07T04:11:22.929Z,25
2017-05-07T04:12:23.703Z,25
2017-05-07T04:13:24.479Z,25
2017-05-07T04:14:25.253Z,25
2017-05-07T04:15:26.027Z,25
2017-05-07T04:16:27.051Z,30
2017-05-07T04:17:27.827Z,30
2017-05-07T04:18:28.788Z,30
2017-05-07T04:19:29.560Z,30
2017-05-07T04:20:30.335Z,35
2017-05-07T04:21:31.356Z,35
2017-05-07T04:22:32.131Z,35
2017-05-07T04:23:32.904Z,40
2017-05-07T04:24:33.679Z,40
2017-05-07T04:25:34.453Z,40
2017-05-07T04:26:35.482Z,40
2017-05-07T04:27:36.256Z,45
2017-05-07T04:28:37.031Z,45
2017-05-07T04:29:37.806Z,50
2017-05-07T04:30:38.762Z,50
2017-05-07T04:31:39.787Z,50
2017-05-07T04:32:40.563Z,50
2017-05-07T04:33:41.339Z,50
2017-05-07T04:34:42.113Z,55
2017-05-07T04:35:42.886Z,50
2017-05-07T04:36:43.912Z,55
2017-05-07T04:37:44.688Z,55
2017-05-07T04:38:45.460Z,55
2017-05-07T04:39:46.236Z,60
2017-05-07T04:40:47.009Z,60
2017-05-07T04:41:48.037Z,60
2017-05-07T04:42:48.812Z,65
2017-05-07T04:43:49.587Z,65
2017-05-07T04:44:50.365Z,65
2017-05-07T04:45:51.142Z,65
2017-05-07T04:46:52.167Z,70
2017-05-07T04:47:52.943Z,70
2017-05-07T04:48:53.718Z,70
2017-05-07T04:49:54.499Z,70
2017-05-07T04:50:55.273Z,70
2017-05-07T04:51:56.295Z,75
2017-05-07T04:52:57.073Z,75
2017-05-07T04:53:57.849Z,75
2017-05-07T04:54:58.624Z,80
2017-05-07T04:55:59.399Z,80
2017-05-07T04:57:00.424Z,85
2017-05-07T04:58:01.199Z,85
2017-05-07T04:59:01.975Z,85
2017-05-07T05:00:02.750Z,85
2017-05-07T05:01:03.526Z,85
2017-05-07T05:02:04.549Z,80
2017-05-07T05:03:05.323Z,85
2017-05-07T05:04:06.101Z,90
2017-05-07T05:05:06.877Z,95
2017-05-07T05:06:07.654Z,100
2017-05-07T05:07:08.679Z,100
2017-05-07T05:08:09.456Z,100
2017-05-07T05:09:10.231Z,100
2017-05-07T05:10:11.193Z,105
2017-05-07T05:11:12.154Z,100
2017-05-07T05:12:13.202Z,105
2017-05-07T05:13:13.957Z,105
2017-05-07T05:14:14.732Z,105
2017-05-07T05:15:15.508Z,100
2017-05-07T05:16:16.286Z,100
2017-05-07T05:17:17.362Z,100
2017-05-07T05:18:18.139Z,100
2017-05-07T05:19:18.918Z,105
2017-05-07T05:20:19.694Z,110
2017-05-07T05:21:20.473Z,110
2017-05-07T05:22:21.499Z,110
2017-05-07T05:23:22.276Z,115
2017-05-07T05:24:23.056Z,115
2017-05-07T05:25:23.835Z,120
2017-05-07T05:26:24.607Z,120
2017-05-07T05:27:25.637Z,115
2017-05-07T05:28:26.415Z,115
2017-05-07T05:29:27.197Z,110
2017-05-07T05:30:27.980Z,115
2017-05-07T05:31:28.750Z,105
2017-05-07T05:32:29.779Z,115
2017-05-07T05:33:30.558Z,115
2017-05-07T05:34:31.338Z,115
2017-05-07T05:35:32.118Z,115
2017-05-07T05:36:32.896Z,115
2017-05-07T05:37:33.924Z,115
2017-05-07T05:38:34.700Z,120
2017-05-07T05:39:35.478Z,115
2017-05-07T05:40:36.256Z,115
2017-05-07T05:41:37.032Z,115
2017-05-07T05:42:38.061Z,120
2017-05-07T05:43:38.839Z,120
2017-05-07T05:44:39.628Z,115
2017-05-07T05:45:40.405Z,120
2017-05-07T05:46:41.186Z,115
2017-05-07T05:47:42.215Z,120
2017-05-07T05:48:42.992Z,120
2017-05-07T05:49:43.770Z,115
2017-05-07T05:50:44.550Z,120
2017-05-07T05:51:45.325Z,120
2017-05-07T05:52:46.378Z,125
2017-05-07T05:53:47.249Z,125
2017-05-07T05:54:48.175Z,130
2017-05-07T05:55:49.021Z,125
2017-05-07T05:56:49.854Z,130
2017-05-07T05:57:51.007Z,135
2017-05-07T05:58:51.787Z,150
2017-05-07T05:59:52.566Z,165
2017-05-07T06:00:53.343Z,150
2017-05-07T06:01:54.196Z,150
2017-05-07T06:02:55.338Z,150
2017-05-07T06:03:56.113Z,155
2017-05-07T06:04:56.895Z,150
2017-05-07T06:05:57.671Z,185
2017-05-07T06:06:58.447Z,155
2017-05-07T06:07:59.473Z,155
2017-05-07T06:09:00.253Z,175
2017-05-07T06:10:01.035Z,185
2017-05-07T06:11:01.825Z,180
2017-05-07T06:12:02.599Z,170
2017-05-07T06:13:03.626Z,170
2017-05-07T06:14:04.405Z,180
2017-05-07T06:15:05.186Z,195
2017-05-07T06:16:05.967Z,160
2017-05-07T06:17:06.811Z,145
2017-05-07T06:18:07.965Z,140
2017-05-07T06:19:08.783Z,150
2017-05-07T06:20:09.560Z,160
2017-05-07T06:21:10.342Z,170
2017-05-07T06:22:11.120Z,170
2017-05-07T06:23:12.299Z,160
2017-05-07T06:24:13.093Z,135
2017-05-07T06:25:13.873Z,135
2017-05-07T06:26:14.658Z,135
2017-05-07T06:27:15.431Z,120
2017-05-07T06:28:16.564Z,105
2017-05-07T06:29:17.341Z,100
2017-05-07T06:30:18.150Z,115
2017-05-07T06:31:18.913Z,125
2017-05-07T06:32:19.693Z,125
2017-05-07T06:33:20.872Z,120
2017-05-07T06:34:21.676Z,140
2017-05-07T06:35:22.456Z,155
2017-05-07T06:36:23.229Z,150
2017-05-07T06:37:24.010Z,140
2017-05-07T06:38:25.127Z,160
2017-05-07T06:39:25.969Z,145
2017-05-07T06:40:26.945Z,160
2017-05-07T06:41:27.726Z,150
2017-05-07T06:42:28.504Z,150
2017-05-07T06:43:29.613Z,155
2017-05-07T06:44:30.444Z,155
2017-05-07T06:45:31.218Z,150
2017-05-07T06:46:31.998Z,155
2017-05-07T06:47:32.823Z,165
2017-05-07T06:48:33.977Z,185
2017-05-07T06:49:34.787Z,180
2017-05-07T06:50:35.564Z,170
2017-05-07T06:51:36.349Z,175
2017-05-07T06:52:37.123Z,175
2017-05-07T06:53:38.258Z,190
2017-05-07T06:54:39.061Z,190
2017-05-07T06:55:39.841Z,190
2017-05-07T06:56:40.620Z,185
2017-05-07T06:57:41.412Z,185
2017-05-07T06:58:42.441Z,220
2017-05-07T06:59:43.220Z,220
2017-05-07T07:00:43.999Z,210
2017-05-07T07:01:44.867Z,205
2017-05-07T07:02:45.677Z,225
2017-05-07T07:03:46.771Z,240
2017-05-07T07:04:47.560Z,265
2017-05-07T07:05:48.537Z,285
2017-05-07T07:06:49.357Z,270
2017-05-07T07:07:50.150Z,245
2017-05-07T07:08:51.181Z,235
2017-05-07T07:09:51.959Z,245
2017-05-07T07:10:52.738Z,250
2017-05-07T07:11:53.517Z,230
2017-05-07T07:12:54.298Z,245
2017-05-07T07:13:55.330Z,220
2017-05-07T07:14:56.107Z,205
2017-05-07T07:15:56.889Z,200
2017-05-07T07:16:57.854Z,215
2017-05-07T07:17:58.635Z,225
2017-05-07T07:18:59.665Z,235
2017-05-07T07:20:00.443Z,230
2017-05-07T07:21:01.225Z,220
2017-05-07T07:22:02.007Z,195
2017-05-07T07:23:02.783Z,195
2017-05-07T07:24:03.816Z,200
2017-05-07T07:25:04.597Z,195
2017-05-07T07:26:05.376Z,190
2017-05-07T07:27:06.153Z,200
2017-05-07T07:28:06.934Z,215
2017-05-07T07:29:07.965Z,225
2017-05-07T07:30:08.746Z,220
2017-05-07T07:31:09.528Z,200
2017-05-07T07:32:10.314Z,180
2017-05-07T07:33:11.087Z,185
2017-05-07T07:34:12.118Z,175
2017-05-07T07:35:12.896Z,165
2017-05-07T07:36:13.679Z,155
2017-05-07T07:37:14.458Z,140
2017-05-07T07:38:15.235Z,135
2017-05-07T07:39:16.264Z,135
2017-05-07T07:40:17.045Z,135
2017-05-07T07:41:17.824Z,135
2017-05-07T07:42:18.602Z,135
2017-05-07T07:43:19.384Z,130
2017-05-07T07:44:20.415Z,130
2017-05-07T07:45:21.196Z,140
2017-05-07T07:46:21.976Z,140
2017-05-07T07:47:22.757Z,140
2017-05-07T07:48:23.536Z,145
2017-05-07T07:49:24.569Z,150
2017-05-07T07:50:25.350Z,160
2017-05-07T07:51:26.129Z,165
2017-05-07T07:52:26.907Z,170
2017-05-07T07:53:27.687Z,180
2017-05-07T07:54:28.720Z,190
2017-05-07T07:55:29.502Z,205
2017-05-07T07:56:30.287Z,215
2017-05-07T07:57:31.059Z,210
2017-05-07T07:58:31.839Z,220
2017-05-07T07:59:32.870Z,235
2017-05-07T08:00:33.651Z,240
2017-05-07T08:01:34.432Z,245
2017-05-07T08:02:35.213Z,250
2017-05-07T08:03:35.989Z,245
2017-05-07T08:04:37.019Z,260
2017-05-07T08:05:37.800Z,270
2017-05-07T08:06:38.623Z,280
2017-05-07T08:07:39.472Z,280
2017-05-07T08:08:40.278Z,285
2017-05-07T08:09:41.308Z,290
2017-05-07T08:10:42.087Z,295
2017-05-07T08:11:42.976Z,290
2017-05-07T08:12:43.891Z,285
2017-05-07T08:13:44.748Z,285
2017-05-07T08:14:45.774Z,295
2017-05-07T08:15:46.609Z,300
2017-05-07T08:16:47.498Z,305
2017-05-07T08:17:48.298Z,310
2017-05-07T08:18:49.078Z,295
2017-05-07T08:19:50.107Z,295
2017-05-07T08:20:50.966Z,290
2017-05-07T08:21:51.763Z,270
2017-05-07T08:22:52.544Z,275
2017-05-07T08:23:53.373Z,290
2017-05-07T08:24:54.403Z,330
2017-05-07T08:25:55.185Z,345
2017-05-07T08:26:55.998Z,335
2017-05-07T08:27:56.808Z,340
2017-05-07T08:28:57.611Z,320
2017-05-07T08:29:58.645Z,330
2017-05-07T08:30:59.453Z,330
2017-05-07T08:32:00.252Z,320
2017-05-07T08:33:01.036Z,335
2017-05-07T08:34:01.842Z,355
2017-05-07T08:35:03.005Z,375
2017-05-07T08:36:03.797Z,350
2017-05-07T08:37:04.581Z,360
2017-05-07T08:38:05.366Z,325
2017-05-07T08:39:06.148Z,315
2017-05-07T08:40:07.322Z,300
2017-05-07T08:41:08.119Z,275
2017-05-07T08:42:08.936Z,260
2017-05-07T08:43:09.745Z,250
2017-05-07T08:44:10.530Z,245
2017-05-07T08:45:11.605Z,245
2017-05-07T08:46:12.388Z,250
2017-05-07T08:47:13.171Z,255
2017-05-07T08:48:13.949Z,285
2017-05-07T08:49:14.769Z,320
2017-05-07T08:50:15.830Z,315
2017-05-07T08:51:16.613Z,300
2017-05-07T08:52:17.403Z,300
2017-05-07T08:53:18.229Z,315
2017-05-07T08:54:19.016Z,325
2017-05-07T08:55:20.066Z,320
2017-05-07T08:56:20.888Z,330
2017-05-07T08:57:21.672Z,330
2017-05-07T08:58:22.454Z,300
2017-05-07T08:59:23.302Z,290
2017-05-07T09:00:24.419Z,300
2017-05-07T09:01:25.189Z,315
2017-05-07T09:02:25.971Z,330
2017-05-07T09:03:26.830Z,370
2017-05-07T09:04:27.665Z,345
2017-05-07T09:05:28.777Z,310
2017-05-07T09:06:29.559Z,290
2017-05-07T09:07:30.339Z,270
2017-05-07T09:08:31.139Z,260
2017-05-07T09:09:31.947Z,260
2017-05-07T09:10:32.981Z,270
2017-05-07T09:11:33.763Z,280
2017-05-07T09:12:34.545Z,290
2017-05-07T09:13:35.329Z,305
2017-05-07T09:14:36.165Z,285
2017-05-07T09:15:37.256Z,275
2017-05-07T09:16:38.039Z,290
2017-05-07T09:17:38.819Z,250
2017-05-07T09:18:39.601Z,220
2017-05-07T09:19:40.575Z,205
2017-05-07T09:20:41.606Z,220
2017-05-07T09:21:42.387Z,225
2017-05-07T09:22:43.170Z,235
2017-05-07T09:23:43.951Z,265
2017-05-07T09:24:44.730Z,275
2017-05-07T09:25:45.761Z,290
2017-05-07T09:26:46.543Z,350
2017-05-07T09:27:47.325Z,385
2017-05-07T09:28:48.108Z,420
2017-05-07T09:29:48.887Z,425
2017-05-07T09:30:49.919Z,370
2017-05-07T09:31:50.702Z,370
2017-05-07T09:32:51.487Z,400
2017-05-07T09:33:52.269Z,420
2017-05-07T09:34:53.052Z,425
2017-05-07T09:35:54.088Z,480
2017-05-07T09:36:54.870Z,535
2017-05-07T09:37:55.658Z,670
2017-05-07T09:38:56.439Z,655
2017-05-07T09:39:57.224Z,600
2017-05-07T09:40:58.261Z,485
2017-05-07T09:41:59.042Z,540
2017-05-07T09:42:59.829Z,665
2017-05-07T09:44:00.661Z,660
2017-05-07T09:45:01.491Z,1280
2017-05-07T09:46:02.510Z,715
2017-05-07T09:47:03.337Z,900
2017-05-07T09:48:04.129Z,740
2017-05-07T09:49:04.915Z,725
2017-05-07T09:50:05.705Z,735
2017-05-07T09:51:06.741Z,665
2017-05-07T09:52:07.588Z,965
2017-05-07T09:53:08.371Z,1255
2017-05-07T09:54:09.170Z,1020
2017-05-07T09:55:09.962Z,1555
2017-05-07T09:56:11.077Z,960
2017-05-07T09:57:11.873Z,1385
2017-05-07T09:58:12.665Z,710
2017-05-07T09:59:13.458Z,640
2017-05-07T10:00:14.304Z,715
2017-05-07T10:01:15.343Z,1070
2017-05-07T10:02:16.185Z,805
2017-05-07T10:03:16.973Z,1670
2017-05-07T10:04:17.763Z,835
2017-05-07T10:05:18.551Z,875
2017-05-07T10:06:19.690Z,1160
2017-05-07T10:07:20.502Z,1055
2017-05-07T10:08:21.291Z,940
2017-05-07T10:09:22.137Z,935
2017-05-07T10:10:22.968Z,1095
2017-05-07T10:11:24.012Z,1180
2017-05-07T10:12:24.871Z,770
2017-05-07T10:13:25.669Z,890
2017-05-07T10:14:26.460Z,1790
2017-05-07T10:15:27.299Z,2155
2017-05-07T10:16:28.340Z,1835
2017-05-07T10:17:29.133Z,1385
2017-05-07T10:18:29.928Z,975
2017-05-07T10:19:30.716Z,1290
2017-05-07T10:20:31.563Z,1700
2017-05-07T10:21:32.618Z,810
2017-05-07T10:22:33.452Z,620
2017-05-07T10:23:34.300Z,560
2017-05-07T10:24:35.151Z,635
2017-05-07T10:25:35.944Z,605
2017-05-07T10:26:36.984Z,790
2017-05-07T10:27:37.827Z,575
2017-05-07T10:28:38.653Z,565
2017-05-07T10:29:39.513Z,585
2017-05-07T10:30:40.374Z,685
2017-05-07T10:31:41.424Z,675
2017-05-07T10:32:42.212Z,625
2017-05-07T10:33:43.062Z,670
2017-05-07T10:34:43.893Z,610
2017-05-07T10:35:44.686Z,555
2017-05-07T10:36:45.755Z,555
2017-05-07T10:37:46.538Z,545
2017-05-07T10:38:47.328Z,490
2017-05-07T10:39:48.164Z,475
2017-05-07T10:40:48.959Z,455
2017-05-07T10:41:50.099Z,460
2017-05-07T10:42:50.885Z,500
2017-05-07T10:43:51.675Z,525
2017-05-07T10:44:52.468Z,530
2017-05-07T10:45:53.250Z,515
2017-05-07T10:46:54.337Z,560
2017-05-07T10:47:55.123Z,610
2017-05-07T10:48:55.911Z,1305
2017-05-07T10:49:56.812Z,1550
2017-05-07T10:50:57.581Z,1345
2017-05-07T10:51:58.622Z,855
2017-05-07T10:52:59.497Z,1245
2017-05-07T10:54:00.411Z,1015
2017-05-07T10:55:01.225Z,925
2017-05-07T10:56:02.029Z,1385
2017-05-07T10:57:03.118Z,1660
2017-05-07T10:58:04.305Z,1055
2017-05-07T10:59:05.122Z,835
2017-05-07T11:00:05.970Z,775
2017-05-07T11:01:06.768Z,770
2017-05-07T11:02:07.829Z,615
2017-05-07T11:03:08.627Z,545
2017-05-07T11:04:09.515Z,1130
2017-05-07T11:05:10.326Z,1015
2017-05-07T11:06:11.176Z,1025
2017-05-07T11:07:12.282Z,690
2017-05-07T11:08:13.074Z,675
2017-05-07T11:09:13.863Z,635
2017-05-07T11:10:14.707Z,710
2017-05-07T11:11:15.498Z,620
2017-05-07T11:12:16.541Z,635
2017-05-07T11:13:17.388Z,1505
2017-05-07T11:14:18.219Z,885
2017-05-07T11:15:19.034Z,795
2017-05-07T11:16:19.878Z,880
2017-05-07T11:17:20.954Z,1600
2017-05-07T11:18:21.747Z,1700
2017-05-07T11:19:22.543Z,1770
2017-05-07T11:20:23.421Z,1750
2017-05-07T11:21:24.209Z,1595
2017-05-07T11:22:25.302Z,1610
2017-05-07T11:23:26.096Z,1750
2017-05-07T11:24:26.929Z,1835
2017-05-07T11:25:27.738Z,1860
2017-05-07T11:26:28.609Z,1830
2017-05-07T11:27:29.653Z,1670
2017-05-07T11:28:30.450Z,1630
2017-05-07T11:29:31.333Z,1330
2017-05-07T11:30:32.143Z,1415
2017-05-07T11:31:32.934Z,905
2017-05-07T11:32:33.978Z,660
2017-05-07T11:33:34.771Z,535
2017-05-07T11:34:35.564Z,440
2017-05-07T11:35:36.415Z,365
2017-05-07T11:36:37.273Z,325
2017-05-07T11:37:38.361Z,310
2017-05-07T11:38:39.151Z,310
2017-05-07T11:39:39.942Z,320
2017-05-07T11:40:40.797Z,335
2017-05-07T11:41:41.624Z,340
2017-05-07T11:42:42.684Z,340
2017-05-07T11:43:43.474Z,350
2017-05-07T11:44:44.368Z,360
2017-05-07T11:45:45.181Z,375
2017-05-07T11:46:45.970Z,380
2017-05-07T11:47:47.042Z,400
2017-05-07T11:48:47.830Z,410
2017-05-07T11:49:48.620Z,425
2017-05-07T11:50:49.410Z,445
2017-05-07T11:51:50.195Z,460
2017-05-07T11:52:51.249Z,455
2017-05-07T11:53:52.114Z,445
2017-05-07T11:54:53.913Z,450
2017-05-07T11:55:54.698Z,470
2017-05-07T11:56:55.484Z,545
2017-05-07T11:57:56.584Z,615
2017-05-07T11:58:57.427Z,695
2017-05-07T11:59:58.213Z,630
2017-05-07T12:00:59.077Z,555
2017-05-07T12:01:59.971Z,520
2017-05-07T12:03:01.020Z,490
2017-05-07T12:04:01.808Z,475
2017-05-07T12:05:02.651Z,465
2017-05-07T12:06:03.439Z,370
2017-05-07T12:07:04.229Z,325
2017-05-07T12:08:05.265Z,295
2017-05-07T12:09:06.054Z,290
2017-05-07T12:10:06.837Z,285
2017-05-07T12:11:07.624Z,285
2017-05-07T12:12:08.412Z,290
2017-05-07T12:13:09.446Z,290
2017-05-07T12:14:10.232Z,290
2017-05-07T12:15:11.018Z,280
2017-05-07T12:16:11.932Z,275
2017-05-07T12:17:13.657Z,270
2017-05-07T12:18:14.725Z,260
2017-05-07T12:19:15.515Z,250
2017-05-07T12:20:16.303Z,240
2017-05-07T12:21:17.091Z,235
2017-05-07T12:22:17.910Z,230
2017-05-07T12:23:18.973Z,230
2017-05-07T12:24:19.761Z,230
2017-05-07T12:25:20.575Z,230
2017-05-07T12:26:21.362Z,225
2017-05-07T12:27:22.150Z,225
2017-05-07T12:28:23.269Z,225
2017-05-07T12:29:24.090Z,215
2017-05-07T12:30:24.993Z,215
2017-05-07T12:31:25.788Z,215
2017-05-07T12:32:26.581Z,215
2017-05-07T12:33:27.611Z,220
2017-05-07T12:34:28.398Z,225
2017-05-07T12:35:29.184Z,230
2017-05-07T12:36:30.008Z,230
2017-05-07T12:37:30.796Z,225
2017-05-07T12:38:31.835Z,225
2017-05-07T12:39:32.622Z,220
2017-05-07T12:40:33.421Z,220
2017-05-07T12:41:34.223Z,210
2017-05-07T12:42:35.008Z,200
2017-05-07T12:43:36.049Z,185
2017-05-07T12:44:36.836Z,180
2017-05-07T12:45:37.676Z,175
2017-05-07T12:46:38.489Z,185
2017-05-07T12:47:39.277Z,195
2017-05-07T12:48:40.372Z,205
2017-05-07T12:49:41.159Z,225
2017-05-07T12:50:41.944Z,245
2017-05-07T12:51:42.789Z,265
2017-05-07T12:52:43.577Z,290
2017-05-07T12:53:44.640Z,295
2017-05-07T12:54:45.456Z,305
2017-05-07T12:55:46.582Z,300
2017-05-07T12:56:48.301Z,295
2017-05-07T12:57:49.083Z,295
2017-05-07T12:58:50.121Z,305
2017-05-07T12:59:50.908Z,305
2017-05-07T13:00:51.696Z,310
2017-05-07T13:01:52.481Z,315
2017-05-07T13:02:53.267Z,310
2017-05-07T13:03:54.301Z,300
2017-05-07T13:04:55.110Z,320
2017-05-07T13:05:55.995Z,345
2017-05-07T13:06:56.871Z,405
2017-05-07T13:07:57.773Z,460
2017-05-07T13:08:58.835Z,500
2017-05-07T13:09:59.623Z,530
2017-05-07T13:11:00.412Z,525
2017-05-07T13:12:01.204Z,530
2017-05-07T13:13:01.999Z,545
2017-05-07T13:14:03.050Z,565
2017-05-07T13:15:03.938Z,600
2017-05-07T13:16:04.722Z,725
2017-05-07T13:17:05.509Z,635
2017-05-07T13:18:06.416Z,815
2017-05-07T13:19:07.485Z,620
2017-05-07T13:20:08.296Z,520
2017-05-07T13:21:09.128Z,525
2017-05-07T13:22:09.935Z,530
2017-05-07T13:23:11.681Z,580
2017-05-07T13:24:12.817Z,700
2017-05-07T13:25:13.627Z,685
2017-05-07T13:26:14.411Z,710
2017-05-07T13:27:15.203Z,685
2017-05-07T13:28:16.019Z,855
2017-05-07T13:29:17.080Z,715
2017-05-07T13:30:18.092Z,535
2017-05-07T13:31:18.918Z,435
2017-05-07T13:32:19.731Z,390
2017-05-07T13:33:20.539Z,355
2017-05-07T13:34:21.636Z,350
2017-05-07T13:35:22.424Z,365
2017-05-07T13:36:23.247Z,380
2017-05-07T13:37:24.073Z,390
2017-05-07T13:38:24.878Z,390
2017-05-07T13:39:25.915Z,395
2017-05-07T13:40:26.705Z,400
2017-05-07T13:41:27.491Z,390
2017-05-07T13:42:28.358Z,370
2017-05-07T13:43:29.243Z,370
2017-05-07T13:44:30.411Z,385
2017-05-07T13:45:31.261Z,420
2017-05-07T13:46:32.048Z,525
2017-05-07T13:47:32.833Z,830
2017-05-07T13:48:33.648Z,520
2017-05-07T13:49:34.694Z,460
2017-05-07T13:50:35.515Z,460
2017-05-07T13:51:36.323Z,470
2017-05-07T13:52:37.169Z,480
2017-05-07T13:53:37.967Z,490
2017-05-07T13:54:39.284Z,500
2017-05-07T13:55:40.154Z,505
2017-05-07T13:56:41.007Z,510
2017-05-07T13:57:41.792Z,510
2017-05-07T13:58:42.601Z,495
2017-05-07T13:59:43.758Z,475
2017-05-07T14:00:44.562Z,460
2017-05-07T14:01:45.387Z,500
2017-05-07T14:02:46.187Z,470
2017-05-07T14:03:47.183Z,475
2017-05-07T14:04:48.341Z,490
2017-05-07T14:05:49.142Z,505
2017-05-07T14:06:49.933Z,510
2017-05-07T14:07:50.723Z,520
2017-05-07T14:08:51.752Z,525
2017-05-07T14:09:52.895Z,525
2017-05-07T14:10:53.693Z,525
2017-05-07T14:11:54.507Z,530
2017-05-07T14:12:55.534Z,530
2017-05-07T14:13:56.363Z,530
2017-05-07T14:14:57.492Z,555